createdAt,value
2018-07-16T00:43:33.651Z,20.90
2018-07-16T00:56:31.591Z,22.00
2018-07-16T00:59:13.447Z,31.80
2018-07-16T01:12:43.527Z,21.95
2018-07-16T01:15:24.320Z,26.30
2018-07-16T01:21:38.412Z,26.75
2018-07-16T01:34:10.438Z,27.57
2018-07-16T01:36:58.809Z,42.00
2018-07-16T01:42:35.425Z,9.45
2018-07-16T01:49:12.246Z,6.70
2018-07-16T01:52:21.504Z,4.00
2018-07-16T01:55:39.269Z,7.77
2018-07-16T04:03:10.884Z,5.40
2018-07-16T04:05:48.124Z,17.87
2018-07-16T04:08:34.152Z,7.00
2018-07-16T04:14:27.952Z,9.90
2018-07-16T04:17:11.750Z,11.57
2018-07-16T04:23:39.437Z,8.93
2018-07-16T04:32:09.137Z,16.20
2018-07-16T05:28:55.701Z,7.80
2018-07-16T05:31:58.031Z,11.93
2018-07-16T05:34:39.514Z,10.77
2018-07-16T05:49:02.194Z,9.73
2018-07-16T05:54:19.100Z,5.27
2018-07-16T05:59:58.772Z,9.83
2018-07-16T06:02:54.997Z,16.87
2018-07-16T06:05:34.279Z,11.57
2018-07-16T06:14:36.451Z,13.27
2018-07-16T06:17:10.293Z,15.47
2018-07-16T06:20:44.506Z,10.20
2018-07-16T06:30:42.592Z,14.10
2018-07-16T06:38:27.913Z,11.37
2018-07-16T06:41:12.348Z,11.63
2018-07-16T06:43:48.527Z,13.30
2018-07-16T06:46:23.129Z,16.90
2018-07-16T06:48:58.409Z,19.67
2018-07-16T06:58:43.737Z,14.80
2018-07-16T07:06:36.680Z,13.97
2018-07-16T07:14:25.869Z,15.30
2018-07-16T07:17:10.476Z,14.07
2018-07-16T07:23:38.062Z,14.20
2018-07-16T07:26:23.137Z,21.50
2018-07-16T07:28:59.832Z,18.73
2018-07-16T07:31:34.871Z,17.70
2018-07-16T07:35:36.806Z,21.40
2018-07-16T07:38:26.043Z,10.60
2018-07-16T07:40:58.961Z,17.57
2018-07-16T07:43:53.492Z,14.73
2018-07-16T07:46:29.713Z,18.50
2018-07-16T07:49:35.865Z,18.43
2018-07-16T07:58:49.576Z,16.93
2018-07-16T08:02:05.246Z,19.93
2018-07-16T08:21:26.226Z,10.30
2018-07-16T08:24:22.896Z,13.43
2018-07-16T08:27:05.182Z,19.47
2018-07-16T08:29:45.913Z,12.40
2018-07-16T08:32:52.200Z,13.73
2018-07-16T08:38:04.869Z,23.13
2018-07-16T08:40:46.633Z,9.33
2018-07-16T08:46:32.616Z,14.47
2018-07-16T08:49:05.380Z,16.43
2018-07-16T08:54:34.955Z,17.17
2018-07-16T08:57:17.244Z,13.27
2018-07-16T08:59:49.807Z,18.17
2018-07-16T09:02:28.292Z,13.87
2018-07-16T09:05:07.914Z,15.13
2018-07-16T09:10:36.732Z,22.03
2018-07-16T09:17:40.652Z,14.85
2018-07-16T09:29:42.068Z,27.30
2018-07-16T09:32:16.609Z,22.70
2018-07-16T09:35:18.676Z,22.37
2018-07-16T09:50:23.942Z,23.73
2018-07-16T09:56:09.144Z,19.60
2018-07-16T09:58:42.418Z,20.60
2018-07-16T10:04:55.940Z,21.43
2018-07-16T10:07:30.928Z,17.90
2018-07-16T10:10:31.427Z,16.67
2018-07-16T10:13:46.893Z,23.53
2018-07-16T10:16:51.647Z,21.60
2018-07-16T11:57:55.031Z,25.90
2018-07-16T12:10:43.311Z,18.83
2018-07-16T12:16:50.964Z,30.47
2018-07-16T12:29:35.163Z,19.80
2018-07-16T12:35:51.978Z,13.87
2018-07-16T12:48:41.815Z,18.00
2018-07-16T13:21:18.765Z,13.87
2018-07-16T13:24:17.555Z,9.47
2018-07-16T13:34:51.785Z,13.30
2018-07-16T13:43:09.107Z,11.63
2018-07-16T13:45:50.418Z,11.87
2018-07-16T13:51:42.272Z,16.60
2018-07-16T13:54:14.676Z,22.17
2018-07-16T14:06:36.833Z,12.23
2018-07-16T14:09:15.846Z,10.63
2018-07-16T14:12:07.898Z,11.97
2018-07-16T14:20:21.477Z,9.10
2018-07-16T14:30:01.841Z,14.23
2018-07-16T14:42:58.891Z,8.13
2018-07-16T14:45:37.073Z,7.30
2018-07-16T14:48:10.965Z,9.47
2018-07-16T14:50:44.590Z,6.83
2018-07-16T14:53:16.081Z,14.23
2018-07-16T14:55:48.264Z,11.50
2018-07-16T14:58:21.653Z,11.77
2018-07-16T15:00:57.686Z,6.87
2018-07-16T15:03:30.656Z,14.33
2018-07-16T15:06:03.619Z,12.73
2018-07-16T15:08:37.534Z,13.80
2018-07-16T15:11:12.435Z,12.37
2018-07-16T15:13:46.657Z,13.93
2018-07-16T15:16:26.353Z,10.20
2018-07-16T15:19:01.676Z,18.00
2018-07-16T15:21:40.048Z,6.73
2018-07-16T15:27:17.061Z,28.50
2018-07-16T15:29:50.462Z,23.87
2018-07-16T15:32:30.162Z,19.03
2018-07-16T15:42:37.515Z,12.83
2018-07-16T15:45:12.669Z,20.83
2018-07-16T15:47:47.017Z,22.80
2018-07-16T15:50:21.075Z,28.60
2018-07-16T15:52:54.523Z,16.30
2018-07-16T15:55:28.981Z,14.13
2018-07-16T15:58:04.734Z,17.13
2018-07-16T16:00:37.928Z,24.50
2018-07-16T16:03:13.478Z,9.80
2018-07-16T16:05:50.215Z,22.33
2018-07-16T16:08:23.583Z,11.47
2018-07-16T16:10:56.935Z,19.17
2018-07-16T16:13:29.812Z,19.37
2018-07-16T16:18:34.033Z,17.70
2018-07-16T16:21:07.564Z,20.23
2018-07-16T16:23:57.132Z,18.60
2018-07-16T16:27:05.479Z,37.63
2018-07-16T16:29:51.053Z,12.20
2018-07-16T16:32:25.382Z,20.20
2018-07-16T16:34:57.980Z,24.30
2018-07-16T16:37:30.284Z,18.05
2018-07-16T16:40:03.244Z,25.40
2018-07-16T16:42:36.329Z,21.40
2018-07-16T16:45:14.380Z,21.35
2018-07-16T16:47:46.903Z,14.60
2018-07-16T16:50:20.544Z,9.65
2018-07-16T16:52:53.516Z,22.90
2018-07-16T16:55:26.533Z,15.70
2018-07-16T16:57:58.999Z,22.33
2018-07-16T17:00:32.456Z,22.40
2018-07-16T17:03:06.493Z,55.47
2018-07-16T17:05:38.930Z,20.47
2018-07-16T17:08:11.734Z,20.50
2018-07-16T17:10:45.091Z,27.17
2018-07-16T17:13:17.701Z,20.70
2018-07-16T17:15:53.475Z,19.93
2018-07-16T17:18:30.803Z,22.83
2018-07-16T17:21:03.457Z,21.70
2018-07-16T17:23:35.617Z,27.77
2018-07-16T17:26:09.530Z,24.73
2018-07-16T17:28:43.043Z,19.10
2018-07-16T17:31:15.781Z,15.80
2018-07-16T17:33:48.482Z,28.70
2018-07-16T17:36:21.682Z,31.20
2018-07-16T17:39:05.223Z,22.10
2018-07-16T17:41:39.924Z,33.95
2018-07-16T17:44:16.941Z,27.30
2018-07-16T17:46:51.638Z,29.07
2018-07-16T17:49:26.558Z,33.00
2018-07-16T17:51:59.915Z,15.27
2018-07-16T17:54:33.651Z,17.45
2018-07-16T17:57:07.650Z,21.50
2018-07-16T17:59:40.446Z,21.37
2018-07-16T18:02:18.321Z,24.77
2018-07-16T18:04:53.427Z,16.95
2018-07-16T18:07:27.123Z,25.40
2018-07-16T18:10:00.809Z,31.90
2018-07-16T18:12:33.249Z,27.67
2018-07-16T18:15:07.559Z,18.77
2018-07-16T18:17:40.789Z,32.43
2018-07-16T18:20:13.347Z,28.50
2018-07-16T18:22:46.048Z,89.55
2018-07-16T18:25:18.214Z,34.55
2018-07-16T18:27:51.979Z,28.37
2018-07-16T18:30:26.150Z,25.00
2018-07-16T18:32:59.778Z,38.53
2018-07-16T18:35:31.987Z,23.70
2018-07-16T18:38:05.212Z,31.33
2018-07-16T18:40:39.439Z,45.30
2018-07-16T18:43:13.831Z,24.30
2018-07-16T18:45:48.453Z,42.03
2018-07-16T18:48:27.016Z,30.83
2018-07-16T18:51:02.435Z,33.15
2018-07-16T18:56:10.548Z,29.55
2018-07-16T18:58:42.991Z,48.57
2018-07-16T19:01:15.287Z,42.57
2018-07-16T19:03:49.503Z,38.50
2018-07-16T19:06:22.219Z,30.07
2018-07-16T19:08:59.359Z,35.53
2018-07-16T19:11:34.364Z,39.13
2018-07-16T19:14:14.048Z,30.62
2018-07-16T19:19:19.707Z,38.60
2018-07-16T19:27:08.709Z,39.60
2018-07-16T19:32:21.801Z,33.10
2018-07-16T19:34:55.421Z,40.70
2018-07-16T20:06:51.971Z,29.30
2018-07-16T20:49:30.236Z,34.23
2018-07-16T20:55:01.929Z,34.77
2018-07-16T20:57:42.469Z,42.33
2018-07-16T21:03:04.785Z,44.30
2018-07-16T21:05:42.624Z,42.10
2018-07-16T21:08:15.081Z,39.70
2018-07-16T21:11:06.825Z,31.35
2018-07-16T21:14:23.813Z,45.12
2018-07-16T21:20:15.602Z,39.07
2018-07-16T21:22:53.870Z,31.37
2018-07-16T21:25:29.859Z,46.53
2018-07-16T21:28:04.759Z,35.10
2018-07-16T21:30:50.949Z,37.77
2018-07-16T21:40:41.097Z,35.87
2018-07-16T22:08:13.811Z,36.63
2018-07-16T22:10:47.343Z,37.37
2018-07-16T22:20:57.614Z,32.17
